Albers, Illinois
Current Conditions -  °F | °C
As of 7:58 PM on Friday 28 Nov 2014 (Local Time) from KBLV Reporting Station
Clear Clear  
Wind Chill: 35°   Ceiling: Unl
Heat Index: 41°   Visibility: 10mi
Dew Point: 35°   Wind: 10mph
Humidity: 80%   Direction: 170°S
Pressure: 29.95"   Gusts: NA
Location:  38.54°N, 89.61°W
Report Text: KBLV 290158Z AUTO 17009KT 10SM CLR 05/02 A2995 RMK AO2 SLP149 T00490018
Loading
Personal Weather Stations






























Interactive Weather Map New forecast layout! Learn more

10-Day Weather Forecast

Advertisements
Track Severe Weather on mobile